<?xml version="1.0" encoding="UTF-8"?>
<gpx xmlns="http://www.topografix.com/GPX/1/1"
     creator="GpsDumpMac 0.27"
     version="1.1"
     xmlns:xsi="http://www.w3.org/2001/XMLSchema-instance"
     xsi:schemaLocation="http://www.topografix.com/GPX/1/1 http://www.topografix.com/GPX/1/1/gpx.xsd">
  <metadata>
    <link href="http://www.gethome.no/stein.sorensen/">
      <text>GPS dump for www.flightlog.org</text>
    </link>
    <time>2013-04-15T11:42:17Z</time>
    <bounds minlat="43.030483" minlon="-3.346117" maxlat="43.051433" maxlon="-3.315050"/>
  </metadata>
  <trk>
    <name>Track 001</name>
    <trkseg>
      <trkpt lat="43.046667" lon="-3.323750">
        <ele>747.0</ele>
        <time>2013-04-14T16:49:42Z</time>
      </trkpt>
      <trkpt lat="43.046483" lon="-3.323267">
        <ele>760.0</ele>
        <time>2013-04-14T16:49:52Z</time>
      </trkpt>
      <trkpt lat="43.046233" lon="-3.322917">
        <ele>768.0</ele>
        <time>2013-04-14T16:50:02Z</time>
      </trkpt>
      <trkpt lat="43.046117" lon="-3.322683">
        <ele>784.0</ele>
        <time>2013-04-14T16:50:12Z</time>
      </trkpt>
      <trkpt lat="43.046050" lon="-3.322533">
        <ele>798.0</ele>
        <time>2013-04-14T16:50:22Z</time>
      </trkpt>
      <trkpt lat="43.046083" lon="-3.322417">
        <ele>805.0</ele>
        <time>2013-04-14T16:50:32Z</time>
      </trkpt>
      <trkpt lat="43.046033" lon="-3.322417">
        <ele>814.0</ele>
        <time>2013-04-14T16:50:42Z</time>
      </trkpt>
      <trkpt lat="43.046000" lon="-3.322350">
        <ele>819.0</ele>
        <time>2013-04-14T16:50:52Z</time>
      </trkpt>
      <trkpt lat="43.046017" lon="-3.322333">
        <ele>823.0</ele>
        <time>2013-04-14T16:51:02Z</time>
      </trkpt>
      <trkpt lat="43.046067" lon="-3.322350">
        <ele>832.0</ele>
        <time>2013-04-14T16:51:12Z</time>
      </trkpt>
      <trkpt lat="43.046083" lon="-3.322317">
        <ele>839.0</ele>
        <time>2013-04-14T16:51:22Z</time>
      </trkpt>
      <trkpt lat="43.046083" lon="-3.322350">
        <ele>847.0</ele>
        <time>2013-04-14T16:51:32Z</time>
      </trkpt>
      <trkpt lat="43.046133" lon="-3.322333">
        <ele>854.0</ele>
        <time>2013-04-14T16:51:42Z</time>
      </trkpt>
      <trkpt lat="43.046183" lon="-3.322367">
        <ele>858.0</ele>
        <time>2013-04-14T16:51:52Z</time>
      </trkpt>
      <trkpt lat="43.046233" lon="-3.322333">
        <ele>863.0</ele>
        <time>2013-04-14T16:52:02Z</time>
      </trkpt>
      <trkpt lat="43.046250" lon="-3.322300">
        <ele>866.0</ele>
        <time>2013-04-14T16:52:12Z</time>
      </trkpt>
      <trkpt lat="43.046283" lon="-3.322283">
        <ele>869.0</ele>
        <time>2013-04-14T16:52:22Z</time>
      </trkpt>
      <trkpt lat="43.046267" lon="-3.322333">
        <ele>872.0</ele>
        <time>2013-04-14T16:52:32Z</time>
      </trkpt>
      <trkpt lat="43.046317" lon="-3.322383">
        <ele>874.0</ele>
        <time>2013-04-14T16:52:42Z</time>
      </trkpt>
      <trkpt lat="43.046367" lon="-3.322333">
        <ele>877.0</ele>
        <time>2013-04-14T16:52:52Z</time>
      </trkpt>
      <trkpt lat="43.046417" lon="-3.322283">
        <ele>878.0</ele>
        <time>2013-04-14T16:53:02Z</time>
      </trkpt>
      <trkpt lat="43.046433" lon="-3.322250">
        <ele>879.0</ele>
        <time>2013-04-14T16:53:12Z</time>
      </trkpt>
      <trkpt lat="43.046100" lon="-3.322000">
        <ele>880.0</ele>
        <time>2013-04-14T16:53:22Z</time>
      </trkpt>
      <trkpt lat="43.045900" lon="-3.320950">
        <ele>883.0</ele>
        <time>2013-04-14T16:53:32Z</time>
      </trkpt>
      <trkpt lat="43.045800" lon="-3.320467">
        <ele>884.0</ele>
        <time>2013-04-14T16:53:42Z</time>
      </trkpt>
      <trkpt lat="43.046133" lon="-3.321100">
        <ele>886.0</ele>
        <time>2013-04-14T16:53:52Z</time>
      </trkpt>
      <trkpt lat="43.046300" lon="-3.321783">
        <ele>887.0</ele>
        <time>2013-04-14T16:54:02Z</time>
      </trkpt>
      <trkpt lat="43.046367" lon="-3.322250">
        <ele>888.0</ele>
        <time>2013-04-14T16:54:12Z</time>
      </trkpt>
      <trkpt lat="43.046067" lon="-3.321467">
        <ele>0.0</ele>
        <time>2013-04-14T16:54:21Z</time>
      </trkpt>
      <trkpt lat="43.045883" lon="-3.320333">
        <ele>890.0</ele>
        <time>2013-04-14T16:54:32Z</time>
      </trkpt>
      <trkpt lat="43.045717" lon="-3.319467">
        <ele>893.0</ele>
        <time>2013-04-14T16:54:42Z</time>
      </trkpt>
      <trkpt lat="43.045917" lon="-3.319950">
        <ele>894.0</ele>
        <time>2013-04-14T16:54:52Z</time>
      </trkpt>
      <trkpt lat="43.046217" lon="-3.320683">
        <ele>895.0</ele>
        <time>2013-04-14T16:55:02Z</time>
      </trkpt>
      <trkpt lat="43.046500" lon="-3.321400">
        <ele>897.0</ele>
        <time>2013-04-14T16:55:12Z</time>
      </trkpt>
      <trkpt lat="43.046883" lon="-3.322133">
        <ele>900.0</ele>
        <time>2013-04-14T16:55:22Z</time>
      </trkpt>
      <trkpt lat="43.047283" lon="-3.322733">
        <ele>902.0</ele>
        <time>2013-04-14T16:55:32Z</time>
      </trkpt>
      <trkpt lat="43.046983" lon="-3.322183">
        <ele>904.0</ele>
        <time>2013-04-14T16:55:42Z</time>
      </trkpt>
      <trkpt lat="43.046783" lon="-3.321167">
        <ele>907.0</ele>
        <time>2013-04-14T16:55:52Z</time>
      </trkpt>
      <trkpt lat="43.046567" lon="-3.320133">
        <ele>909.0</ele>
        <time>2013-04-14T16:56:02Z</time>
      </trkpt>
      <trkpt lat="43.046250" lon="-3.319433">
        <ele>912.0</ele>
        <time>2013-04-14T16:56:12Z</time>
      </trkpt>
      <trkpt lat="43.046017" lon="-3.318567">
        <ele>916.0</ele>
        <time>2013-04-14T16:56:22Z</time>
      </trkpt>
      <trkpt lat="43.045900" lon="-3.317633">
        <ele>922.0</ele>
        <time>2013-04-14T16:56:32Z</time>
      </trkpt>
      <trkpt lat="43.045817" lon="-3.317233">
        <ele>926.0</ele>
        <time>2013-04-14T16:56:42Z</time>
      </trkpt>
      <trkpt lat="43.046167" lon="-3.317967">
        <ele>932.0</ele>
        <time>2013-04-14T16:56:52Z</time>
      </trkpt>
      <trkpt lat="43.046567" lon="-3.318700">
        <ele>939.0</ele>
        <time>2013-04-14T16:57:02Z</time>
      </trkpt>
      <trkpt lat="43.046317" lon="-3.318217">
        <ele>945.0</ele>
        <time>2013-04-14T16:57:12Z</time>
      </trkpt>
      <trkpt lat="43.046200" lon="-3.317117">
        <ele>953.0</ele>
        <time>2013-04-14T16:57:22Z</time>
      </trkpt>
      <trkpt lat="43.046000" lon="-3.316950">
        <ele>958.0</ele>
        <time>2013-04-14T16:57:32Z</time>
      </trkpt>
      <trkpt lat="43.046367" lon="-3.317700">
        <ele>965.0</ele>
        <time>2013-04-14T16:57:42Z</time>
      </trkpt>
      <trkpt lat="43.046850" lon="-3.318367">
        <ele>973.0</ele>
        <time>2013-04-14T16:57:52Z</time>
      </trkpt>
      <trkpt lat="43.047150" lon="-3.319117">
        <ele>980.0</ele>
        <time>2013-04-14T16:58:02Z</time>
      </trkpt>
      <trkpt lat="43.047583" lon="-3.319783">
        <ele>987.0</ele>
        <time>2013-04-14T16:58:12Z</time>
      </trkpt>
      <trkpt lat="43.047333" lon="-3.319317">
        <ele>992.0</ele>
        <time>2013-04-14T16:58:22Z</time>
      </trkpt>
      <trkpt lat="43.047067" lon="-3.318350">
        <ele>999.0</ele>
        <time>2013-04-14T16:58:32Z</time>
      </trkpt>
      <trkpt lat="43.046783" lon="-3.317600">
        <ele>1008.0</ele>
        <time>2013-04-14T16:58:43Z</time>
      </trkpt>
      <trkpt lat="43.046583" lon="-3.316600">
        <ele>1017.0</ele>
        <time>2013-04-14T16:58:53Z</time>
      </trkpt>
      <trkpt lat="43.046683" lon="-3.315200">
        <ele>1023.0</ele>
        <time>2013-04-14T16:59:03Z</time>
      </trkpt>
      <trkpt lat="43.046417" lon="-3.315050">
        <ele>1027.0</ele>
        <time>2013-04-14T16:59:13Z</time>
      </trkpt>
      <trkpt lat="43.046300" lon="-3.315400">
        <ele>1032.0</ele>
        <time>2013-04-14T16:59:23Z</time>
      </trkpt>
      <trkpt lat="43.046150" lon="-3.315800">
        <ele>1038.0</ele>
        <time>2013-04-14T16:59:33Z</time>
      </trkpt>
      <trkpt lat="43.046017" lon="-3.316200">
        <ele>1046.0</ele>
        <time>2013-04-14T16:59:43Z</time>
      </trkpt>
      <trkpt lat="43.046517" lon="-3.316283">
        <ele>1057.0</ele>
        <time>2013-04-14T16:59:53Z</time>
      </trkpt>
      <trkpt lat="43.046467" lon="-3.315450">
        <ele>1066.0</ele>
        <time>2013-04-14T17:00:03Z</time>
      </trkpt>
      <trkpt lat="43.046183" lon="-3.315483">
        <ele>1073.0</ele>
        <time>2013-04-14T17:00:13Z</time>
      </trkpt>
      <trkpt lat="43.046033" lon="-3.315700">
        <ele>1082.0</ele>
        <time>2013-04-14T17:00:23Z</time>
      </trkpt>
      <trkpt lat="43.045783" lon="-3.315767">
        <ele>1091.0</ele>
        <time>2013-04-14T17:00:33Z</time>
      </trkpt>
      <trkpt lat="43.045650" lon="-3.315933">
        <ele>1101.0</ele>
        <time>2013-04-14T17:00:43Z</time>
      </trkpt>
      <trkpt lat="43.045500" lon="-3.316017">
        <ele>1110.0</ele>
        <time>2013-04-14T17:00:53Z</time>
      </trkpt>
      <trkpt lat="43.045417" lon="-3.316317">
        <ele>1119.0</ele>
        <time>2013-04-14T17:01:03Z</time>
      </trkpt>
      <trkpt lat="43.045350" lon="-3.316717">
        <ele>1127.0</ele>
        <time>2013-04-14T17:01:13Z</time>
      </trkpt>
      <trkpt lat="43.045250" lon="-3.316950">
        <ele>1136.0</ele>
        <time>2013-04-14T17:01:23Z</time>
      </trkpt>
      <trkpt lat="43.045167" lon="-3.317317">
        <ele>1144.0</ele>
        <time>2013-04-14T17:01:33Z</time>
      </trkpt>
      <trkpt lat="43.045167" lon="-3.317733">
        <ele>1149.0</ele>
        <time>2013-04-14T17:01:43Z</time>
      </trkpt>
      <trkpt lat="43.045350" lon="-3.318400">
        <ele>1154.0</ele>
        <time>2013-04-14T17:01:53Z</time>
      </trkpt>
      <trkpt lat="43.045500" lon="-3.318917">
        <ele>1155.0</ele>
        <time>2013-04-14T17:02:03Z</time>
      </trkpt>
      <trkpt lat="43.045617" lon="-3.319383">
        <ele>1154.0</ele>
        <time>2013-04-14T17:02:13Z</time>
      </trkpt>
      <trkpt lat="43.045717" lon="-3.320067">
        <ele>1154.0</ele>
        <time>2013-04-14T17:02:23Z</time>
      </trkpt>
      <trkpt lat="43.045867" lon="-3.320833">
        <ele>1156.0</ele>
        <time>2013-04-14T17:02:33Z</time>
      </trkpt>
      <trkpt lat="43.046050" lon="-3.321467">
        <ele>1159.0</ele>
        <time>2013-04-14T17:02:43Z</time>
      </trkpt>
      <trkpt lat="43.046733" lon="-3.320633">
        <ele>1160.0</ele>
        <time>2013-04-14T17:02:53Z</time>
      </trkpt>
      <trkpt lat="43.046533" lon="-3.319683">
        <ele>1163.0</ele>
        <time>2013-04-14T17:03:03Z</time>
      </trkpt>
      <trkpt lat="43.046183" lon="-3.319417">
        <ele>1165.0</ele>
        <time>2013-04-14T17:03:13Z</time>
      </trkpt>
      <trkpt lat="43.045850" lon="-3.319583">
        <ele>1169.0</ele>
        <time>2013-04-14T17:03:23Z</time>
      </trkpt>
      <trkpt lat="43.045733" lon="-3.319933">
        <ele>1173.0</ele>
        <time>2013-04-14T17:03:33Z</time>
      </trkpt>
      <trkpt lat="43.045733" lon="-3.320433">
        <ele>1177.0</ele>
        <time>2013-04-14T17:03:43Z</time>
      </trkpt>
      <trkpt lat="43.045917" lon="-3.321217">
        <ele>1181.0</ele>
        <time>2013-04-14T17:03:53Z</time>
      </trkpt>
      <trkpt lat="43.046050" lon="-3.321883">
        <ele>1180.0</ele>
        <time>2013-04-14T17:04:03Z</time>
      </trkpt>
      <trkpt lat="43.046150" lon="-3.322567">
        <ele>1178.0</ele>
        <time>2013-04-14T17:04:13Z</time>
      </trkpt>
      <trkpt lat="43.046267" lon="-3.323250">
        <ele>1173.0</ele>
        <time>2013-04-14T17:04:23Z</time>
      </trkpt>
      <trkpt lat="43.047033" lon="-3.323767">
        <ele>1164.0</ele>
        <time>2013-04-14T17:04:33Z</time>
      </trkpt>
      <trkpt lat="43.047833" lon="-3.322633">
        <ele>1157.0</ele>
        <time>2013-04-14T17:04:43Z</time>
      </trkpt>
      <trkpt lat="43.047750" lon="-3.321667">
        <ele>1150.0</ele>
        <time>2013-04-14T17:04:53Z</time>
      </trkpt>
      <trkpt lat="43.047433" lon="-3.321150">
        <ele>1147.0</ele>
        <time>2013-04-14T17:05:03Z</time>
      </trkpt>
      <trkpt lat="43.047050" lon="-3.320717">
        <ele>1142.0</ele>
        <time>2013-04-14T17:05:13Z</time>
      </trkpt>
      <trkpt lat="43.046767" lon="-3.320367">
        <ele>1141.0</ele>
        <time>2013-04-14T17:05:23Z</time>
      </trkpt>
      <trkpt lat="43.046433" lon="-3.319917">
        <ele>1140.0</ele>
        <time>2013-04-14T17:05:33Z</time>
      </trkpt>
      <trkpt lat="43.046050" lon="-3.319500">
        <ele>1141.0</ele>
        <time>2013-04-14T17:05:43Z</time>
      </trkpt>
      <trkpt lat="43.045617" lon="-3.319217">
        <ele>1140.0</ele>
        <time>2013-04-14T17:05:53Z</time>
      </trkpt>
      <trkpt lat="43.045283" lon="-3.319017">
        <ele>1137.0</ele>
        <time>2013-04-14T17:06:03Z</time>
      </trkpt>
      <trkpt lat="43.044900" lon="-3.319033">
        <ele>1131.0</ele>
        <time>2013-04-14T17:06:13Z</time>
      </trkpt>
      <trkpt lat="43.044600" lon="-3.319100">
        <ele>1123.0</ele>
        <time>2013-04-14T17:06:23Z</time>
      </trkpt>
      <trkpt lat="43.044250" lon="-3.319233">
        <ele>1113.0</ele>
        <time>2013-04-14T17:06:34Z</time>
      </trkpt>
      <trkpt lat="43.044017" lon="-3.319450">
        <ele>1103.0</ele>
        <time>2013-04-14T17:06:44Z</time>
      </trkpt>
      <trkpt lat="43.043817" lon="-3.319883">
        <ele>1093.0</ele>
        <time>2013-04-14T17:06:54Z</time>
      </trkpt>
      <trkpt lat="43.043717" lon="-3.320383">
        <ele>1084.0</ele>
        <time>2013-04-14T17:07:04Z</time>
      </trkpt>
      <trkpt lat="43.043583" lon="-3.320817">
        <ele>1076.0</ele>
        <time>2013-04-14T17:07:14Z</time>
      </trkpt>
      <trkpt lat="43.043417" lon="-3.321183">
        <ele>1067.0</ele>
        <time>2013-04-14T17:07:24Z</time>
      </trkpt>
      <trkpt lat="43.043233" lon="-3.321667">
        <ele>1058.0</ele>
        <time>2013-04-14T17:07:34Z</time>
      </trkpt>
      <trkpt lat="43.043483" lon="-3.322450">
        <ele>1045.0</ele>
        <time>2013-04-14T17:07:44Z</time>
      </trkpt>
      <trkpt lat="43.044417" lon="-3.322750">
        <ele>1034.0</ele>
        <time>2013-04-14T17:07:54Z</time>
      </trkpt>
      <trkpt lat="43.045183" lon="-3.321683">
        <ele>1025.0</ele>
        <time>2013-04-14T17:08:04Z</time>
      </trkpt>
      <trkpt lat="43.045250" lon="-3.320600">
        <ele>1018.0</ele>
        <time>2013-04-14T17:08:14Z</time>
      </trkpt>
      <trkpt lat="43.045183" lon="-3.319633">
        <ele>1015.0</ele>
        <time>2013-04-14T17:08:24Z</time>
      </trkpt>
      <trkpt lat="43.045117" lon="-3.318717">
        <ele>1013.0</ele>
        <time>2013-04-14T17:08:34Z</time>
      </trkpt>
      <trkpt lat="43.044883" lon="-3.318067">
        <ele>1013.0</ele>
        <time>2013-04-14T17:08:44Z</time>
      </trkpt>
      <trkpt lat="43.044717" lon="-3.317667">
        <ele>1016.0</ele>
        <time>2013-04-14T17:08:54Z</time>
      </trkpt>
      <trkpt lat="43.044583" lon="-3.317367">
        <ele>1021.0</ele>
        <time>2013-04-14T17:09:04Z</time>
      </trkpt>
      <trkpt lat="43.044500" lon="-3.317117">
        <ele>1028.0</ele>
        <time>2013-04-14T17:09:14Z</time>
      </trkpt>
      <trkpt lat="43.044317" lon="-3.316950">
        <ele>1036.0</ele>
        <time>2013-04-14T17:09:24Z</time>
      </trkpt>
      <trkpt lat="43.044067" lon="-3.316850">
        <ele>1045.0</ele>
        <time>2013-04-14T17:09:34Z</time>
      </trkpt>
      <trkpt lat="43.043967" lon="-3.317033">
        <ele>1054.0</ele>
        <time>2013-04-14T17:09:44Z</time>
      </trkpt>
      <trkpt lat="43.043983" lon="-3.317583">
        <ele>1059.0</ele>
        <time>2013-04-14T17:09:54Z</time>
      </trkpt>
      <trkpt lat="43.044067" lon="-3.318217">
        <ele>1061.0</ele>
        <time>2013-04-14T17:10:04Z</time>
      </trkpt>
      <trkpt lat="43.044100" lon="-3.318817">
        <ele>1063.0</ele>
        <time>2013-04-14T17:10:14Z</time>
      </trkpt>
      <trkpt lat="43.044033" lon="-3.319233">
        <ele>1067.0</ele>
        <time>2013-04-14T17:10:24Z</time>
      </trkpt>
      <trkpt lat="43.044533" lon="-3.319533">
        <ele>1074.0</ele>
        <time>2013-04-14T17:10:34Z</time>
      </trkpt>
      <trkpt lat="43.044617" lon="-3.318883">
        <ele>1080.0</ele>
        <time>2013-04-14T17:10:44Z</time>
      </trkpt>
      <trkpt lat="43.044500" lon="-3.319233">
        <ele>1086.0</ele>
        <time>2013-04-14T17:10:54Z</time>
      </trkpt>
      <trkpt lat="43.044450" lon="-3.319767">
        <ele>1091.0</ele>
        <time>2013-04-14T17:11:04Z</time>
      </trkpt>
      <trkpt lat="43.044317" lon="-3.320317">
        <ele>1096.0</ele>
        <time>2013-04-14T17:11:14Z</time>
      </trkpt>
      <trkpt lat="43.044150" lon="-3.320783">
        <ele>1104.0</ele>
        <time>2013-04-14T17:11:24Z</time>
      </trkpt>
      <trkpt lat="43.044283" lon="-3.321433">
        <ele>1115.0</ele>
        <time>2013-04-14T17:11:34Z</time>
      </trkpt>
      <trkpt lat="43.044683" lon="-3.320783">
        <ele>1127.0</ele>
        <time>2013-04-14T17:11:44Z</time>
      </trkpt>
      <trkpt lat="43.044483" lon="-3.320983">
        <ele>1135.0</ele>
        <time>2013-04-14T17:11:54Z</time>
      </trkpt>
      <trkpt lat="43.044450" lon="-3.321483">
        <ele>1141.0</ele>
        <time>2013-04-14T17:12:04Z</time>
      </trkpt>
      <trkpt lat="43.044450" lon="-3.322100">
        <ele>1145.0</ele>
        <time>2013-04-14T17:12:14Z</time>
      </trkpt>
      <trkpt lat="43.044500" lon="-3.322667">
        <ele>1146.0</ele>
        <time>2013-04-14T17:12:24Z</time>
      </trkpt>
      <trkpt lat="43.044667" lon="-3.323383">
        <ele>1148.0</ele>
        <time>2013-04-14T17:12:34Z</time>
      </trkpt>
      <trkpt lat="43.044767" lon="-3.324083">
        <ele>1147.0</ele>
        <time>2013-04-14T17:12:44Z</time>
      </trkpt>
      <trkpt lat="43.044833" lon="-3.324667">
        <ele>1148.0</ele>
        <time>2013-04-14T17:12:54Z</time>
      </trkpt>
      <trkpt lat="43.044950" lon="-3.325250">
        <ele>1153.0</ele>
        <time>2013-04-14T17:13:04Z</time>
      </trkpt>
      <trkpt lat="43.045083" lon="-3.325917">
        <ele>1159.0</ele>
        <time>2013-04-14T17:13:14Z</time>
      </trkpt>
      <trkpt lat="43.045267" lon="-3.326533">
        <ele>1162.0</ele>
        <time>2013-04-14T17:13:24Z</time>
      </trkpt>
      <trkpt lat="43.045550" lon="-3.326983">
        <ele>1165.0</ele>
        <time>2013-04-14T17:13:34Z</time>
      </trkpt>
      <trkpt lat="43.045683" lon="-3.327333">
        <ele>1166.0</ele>
        <time>2013-04-14T17:13:44Z</time>
      </trkpt>
      <trkpt lat="43.045633" lon="-3.327300">
        <ele>1165.0</ele>
        <time>2013-04-14T17:13:54Z</time>
      </trkpt>
      <trkpt lat="43.045533" lon="-3.327283">
        <ele>1164.0</ele>
        <time>2013-04-14T17:14:05Z</time>
      </trkpt>
      <trkpt lat="43.045367" lon="-3.327067">
        <ele>1162.0</ele>
        <time>2013-04-14T17:14:15Z</time>
      </trkpt>
      <trkpt lat="43.045150" lon="-3.326850">
        <ele>1158.0</ele>
        <time>2013-04-14T17:14:25Z</time>
      </trkpt>
      <trkpt lat="43.044933" lon="-3.326767">
        <ele>1154.0</ele>
        <time>2013-04-14T17:14:35Z</time>
      </trkpt>
      <trkpt lat="43.044733" lon="-3.326733">
        <ele>1150.0</ele>
        <time>2013-04-14T17:14:45Z</time>
      </trkpt>
      <trkpt lat="43.044517" lon="-3.326650">
        <ele>1146.0</ele>
        <time>2013-04-14T17:14:55Z</time>
      </trkpt>
      <trkpt lat="43.044267" lon="-3.326700">
        <ele>1142.0</ele>
        <time>2013-04-14T17:15:05Z</time>
      </trkpt>
      <trkpt lat="43.044033" lon="-3.326817">
        <ele>1138.0</ele>
        <time>2013-04-14T17:15:15Z</time>
      </trkpt>
      <trkpt lat="43.043783" lon="-3.326950">
        <ele>1132.0</ele>
        <time>2013-04-14T17:15:25Z</time>
      </trkpt>
      <trkpt lat="43.043800" lon="-3.327517">
        <ele>1123.0</ele>
        <time>2013-04-14T17:15:35Z</time>
      </trkpt>
      <trkpt lat="43.044000" lon="-3.328283">
        <ele>1108.0</ele>
        <time>2013-04-14T17:15:45Z</time>
      </trkpt>
      <trkpt lat="43.044217" lon="-3.328967">
        <ele>1099.0</ele>
        <time>2013-04-14T17:15:55Z</time>
      </trkpt>
      <trkpt lat="43.044433" lon="-3.329683">
        <ele>1090.0</ele>
        <time>2013-04-14T17:16:05Z</time>
      </trkpt>
      <trkpt lat="43.044750" lon="-3.330433">
        <ele>1081.0</ele>
        <time>2013-04-14T17:16:15Z</time>
      </trkpt>
      <trkpt lat="43.045100" lon="-3.331233">
        <ele>1072.0</ele>
        <time>2013-04-14T17:16:25Z</time>
      </trkpt>
      <trkpt lat="43.045400" lon="-3.331850">
        <ele>1064.0</ele>
        <time>2013-04-14T17:16:35Z</time>
      </trkpt>
      <trkpt lat="43.045467" lon="-3.332367">
        <ele>1056.0</ele>
        <time>2013-04-14T17:16:45Z</time>
      </trkpt>
      <trkpt lat="43.045467" lon="-3.332983">
        <ele>1045.0</ele>
        <time>2013-04-14T17:16:55Z</time>
      </trkpt>
      <trkpt lat="43.045983" lon="-3.333750">
        <ele>1029.0</ele>
        <time>2013-04-14T17:17:05Z</time>
      </trkpt>
      <trkpt lat="43.046983" lon="-3.333050">
        <ele>1016.0</ele>
        <time>2013-04-14T17:17:15Z</time>
      </trkpt>
      <trkpt lat="43.047150" lon="-3.331833">
        <ele>1006.0</ele>
        <time>2013-04-14T17:17:25Z</time>
      </trkpt>
      <trkpt lat="43.047150" lon="-3.330817">
        <ele>997.0</ele>
        <time>2013-04-14T17:17:35Z</time>
      </trkpt>
      <trkpt lat="43.047033" lon="-3.330050">
        <ele>995.0</ele>
        <time>2013-04-14T17:17:45Z</time>
      </trkpt>
      <trkpt lat="43.047383" lon="-3.330383">
        <ele>995.0</ele>
        <time>2013-04-14T17:17:55Z</time>
      </trkpt>
      <trkpt lat="43.047783" lon="-3.329783">
        <ele>997.0</ele>
        <time>2013-04-14T17:18:05Z</time>
      </trkpt>
      <trkpt lat="43.047683" lon="-3.330100">
        <ele>999.0</ele>
        <time>2013-04-14T17:18:15Z</time>
      </trkpt>
      <trkpt lat="43.048217" lon="-3.330583">
        <ele>1004.0</ele>
        <time>2013-04-14T17:18:25Z</time>
      </trkpt>
      <trkpt lat="43.048583" lon="-3.329917">
        <ele>1009.0</ele>
        <time>2013-04-14T17:18:35Z</time>
      </trkpt>
      <trkpt lat="43.048683" lon="-3.330667">
        <ele>1013.0</ele>
        <time>2013-04-14T17:18:45Z</time>
      </trkpt>
      <trkpt lat="43.048817" lon="-3.331567">
        <ele>1019.0</ele>
        <time>2013-04-14T17:18:55Z</time>
      </trkpt>
      <trkpt lat="43.048917" lon="-3.332017">
        <ele>1025.0</ele>
        <time>2013-04-14T17:19:05Z</time>
      </trkpt>
      <trkpt lat="43.049733" lon="-3.331983">
        <ele>1034.0</ele>
        <time>2013-04-14T17:19:15Z</time>
      </trkpt>
      <trkpt lat="43.049817" lon="-3.332783">
        <ele>1041.0</ele>
        <time>2013-04-14T17:19:25Z</time>
      </trkpt>
      <trkpt lat="43.049833" lon="-3.332433">
        <ele>1049.0</ele>
        <time>2013-04-14T17:19:35Z</time>
      </trkpt>
      <trkpt lat="43.050500" lon="-3.332817">
        <ele>1058.0</ele>
        <time>2013-04-14T17:19:45Z</time>
      </trkpt>
      <trkpt lat="43.050500" lon="-3.333567">
        <ele>1066.0</ele>
        <time>2013-04-14T17:19:55Z</time>
      </trkpt>
      <trkpt lat="43.050500" lon="-3.334317">
        <ele>1073.0</ele>
        <time>2013-04-14T17:20:05Z</time>
      </trkpt>
      <trkpt lat="43.050633" lon="-3.335083">
        <ele>1081.0</ele>
        <time>2013-04-14T17:20:15Z</time>
      </trkpt>
      <trkpt lat="43.050717" lon="-3.335750">
        <ele>1087.0</ele>
        <time>2013-04-14T17:20:25Z</time>
      </trkpt>
      <trkpt lat="43.050683" lon="-3.336250">
        <ele>1094.0</ele>
        <time>2013-04-14T17:20:35Z</time>
      </trkpt>
      <trkpt lat="43.050650" lon="-3.336750">
        <ele>1102.0</ele>
        <time>2013-04-14T17:20:45Z</time>
      </trkpt>
      <trkpt lat="43.050583" lon="-3.337300">
        <ele>1111.0</ele>
        <time>2013-04-14T17:20:55Z</time>
      </trkpt>
      <trkpt lat="43.050850" lon="-3.336933">
        <ele>1124.0</ele>
        <time>2013-04-14T17:21:05Z</time>
      </trkpt>
      <trkpt lat="43.051433" lon="-3.337667">
        <ele>1138.0</ele>
        <time>2013-04-14T17:21:15Z</time>
      </trkpt>
      <trkpt lat="43.051350" lon="-3.338250">
        <ele>1147.0</ele>
        <time>2013-04-14T17:21:25Z</time>
      </trkpt>
      <trkpt lat="43.051183" lon="-3.338783">
        <ele>1155.0</ele>
        <time>2013-04-14T17:21:35Z</time>
      </trkpt>
      <trkpt lat="43.051000" lon="-3.339200">
        <ele>1164.0</ele>
        <time>2013-04-14T17:21:45Z</time>
      </trkpt>
      <trkpt lat="43.050800" lon="-3.339700">
        <ele>1172.0</ele>
        <time>2013-04-14T17:21:55Z</time>
      </trkpt>
      <trkpt lat="43.050583" lon="-3.340200">
        <ele>1180.0</ele>
        <time>2013-04-14T17:22:05Z</time>
      </trkpt>
      <trkpt lat="43.050467" lon="-3.340783">
        <ele>1187.0</ele>
        <time>2013-04-14T17:22:15Z</time>
      </trkpt>
      <trkpt lat="43.050200" lon="-3.341133">
        <ele>1193.0</ele>
        <time>2013-04-14T17:22:26Z</time>
      </trkpt>
      <trkpt lat="43.049917" lon="-3.341467">
        <ele>1196.0</ele>
        <time>2013-04-14T17:22:36Z</time>
      </trkpt>
      <trkpt lat="43.049717" lon="-3.341800">
        <ele>1197.0</ele>
        <time>2013-04-14T17:22:46Z</time>
      </trkpt>
      <trkpt lat="43.049467" lon="-3.342233">
        <ele>1197.0</ele>
        <time>2013-04-14T17:22:56Z</time>
      </trkpt>
      <trkpt lat="43.049217" lon="-3.342667">
        <ele>1197.0</ele>
        <time>2013-04-14T17:23:06Z</time>
      </trkpt>
      <trkpt lat="43.048933" lon="-3.343083">
        <ele>1197.0</ele>
        <time>2013-04-14T17:23:16Z</time>
      </trkpt>
      <trkpt lat="43.048667" lon="-3.343400">
        <ele>1198.0</ele>
        <time>2013-04-14T17:23:26Z</time>
      </trkpt>
      <trkpt lat="43.048417" lon="-3.343567">
        <ele>1198.0</ele>
        <time>2013-04-14T17:23:36Z</time>
      </trkpt>
      <trkpt lat="43.048183" lon="-3.343733">
        <ele>1199.0</ele>
        <time>2013-04-14T17:23:46Z</time>
      </trkpt>
      <trkpt lat="43.047983" lon="-3.343983">
        <ele>1201.0</ele>
        <time>2013-04-14T17:23:56Z</time>
      </trkpt>
      <trkpt lat="43.047767" lon="-3.343850">
        <ele>1204.0</ele>
        <time>2013-04-14T17:24:06Z</time>
      </trkpt>
      <trkpt lat="43.047533" lon="-3.343983">
        <ele>1206.0</ele>
        <time>2013-04-14T17:24:16Z</time>
      </trkpt>
      <trkpt lat="43.047383" lon="-3.344300">
        <ele>1206.0</ele>
        <time>2013-04-14T17:24:26Z</time>
      </trkpt>
      <trkpt lat="43.047083" lon="-3.344583">
        <ele>1204.0</ele>
        <time>2013-04-14T17:24:36Z</time>
      </trkpt>
      <trkpt lat="43.046833" lon="-3.344950">
        <ele>1203.0</ele>
        <time>2013-04-14T17:24:46Z</time>
      </trkpt>
      <trkpt lat="43.046517" lon="-3.345150">
        <ele>1201.0</ele>
        <time>2013-04-14T17:24:56Z</time>
      </trkpt>
      <trkpt lat="43.046200" lon="-3.345383">
        <ele>1199.0</ele>
        <time>2013-04-14T17:25:06Z</time>
      </trkpt>
      <trkpt lat="43.045867" lon="-3.345683">
        <ele>1196.0</ele>
        <time>2013-04-14T17:25:16Z</time>
      </trkpt>
      <trkpt lat="43.045583" lon="-3.345950">
        <ele>1193.0</ele>
        <time>2013-04-14T17:25:26Z</time>
      </trkpt>
      <trkpt lat="43.045333" lon="-3.346117">
        <ele>1189.0</ele>
        <time>2013-04-14T17:25:36Z</time>
      </trkpt>
      <trkpt lat="43.045017" lon="-3.345683">
        <ele>1183.0</ele>
        <time>2013-04-14T17:25:46Z</time>
      </trkpt>
      <trkpt lat="43.044733" lon="-3.345450">
        <ele>1179.0</ele>
        <time>2013-04-14T17:25:56Z</time>
      </trkpt>
      <trkpt lat="43.044467" lon="-3.345167">
        <ele>1177.0</ele>
        <time>2013-04-14T17:26:06Z</time>
      </trkpt>
      <trkpt lat="43.044267" lon="-3.344683">
        <ele>1175.0</ele>
        <time>2013-04-14T17:26:16Z</time>
      </trkpt>
      <trkpt lat="43.044083" lon="-3.343983">
        <ele>1174.0</ele>
        <time>2013-04-14T17:26:26Z</time>
      </trkpt>
      <trkpt lat="43.043917" lon="-3.343233">
        <ele>1173.0</ele>
        <time>2013-04-14T17:26:36Z</time>
      </trkpt>
      <trkpt lat="43.043750" lon="-3.342400">
        <ele>1169.0</ele>
        <time>2013-04-14T17:26:46Z</time>
      </trkpt>
      <trkpt lat="43.043550" lon="-3.341617">
        <ele>1166.0</ele>
        <time>2013-04-14T17:26:56Z</time>
      </trkpt>
      <trkpt lat="43.043283" lon="-3.341017">
        <ele>1161.0</ele>
        <time>2013-04-14T17:27:06Z</time>
      </trkpt>
      <trkpt lat="43.042950" lon="-3.340550">
        <ele>1157.0</ele>
        <time>2013-04-14T17:27:16Z</time>
      </trkpt>
      <trkpt lat="43.042600" lon="-3.340183">
        <ele>1152.0</ele>
        <time>2013-04-14T17:27:26Z</time>
      </trkpt>
      <trkpt lat="43.042300" lon="-3.339750">
        <ele>1147.0</ele>
        <time>2013-04-14T17:27:36Z</time>
      </trkpt>
      <trkpt lat="43.042000" lon="-3.339167">
        <ele>1137.0</ele>
        <time>2013-04-14T17:27:46Z</time>
      </trkpt>
      <trkpt lat="43.041683" lon="-3.338483">
        <ele>1127.0</ele>
        <time>2013-04-14T17:27:56Z</time>
      </trkpt>
      <trkpt lat="43.041350" lon="-3.337967">
        <ele>1117.0</ele>
        <time>2013-04-14T17:28:06Z</time>
      </trkpt>
      <trkpt lat="43.041033" lon="-3.337500">
        <ele>1108.0</ele>
        <time>2013-04-14T17:28:16Z</time>
      </trkpt>
      <trkpt lat="43.040683" lon="-3.337300">
        <ele>1101.0</ele>
        <time>2013-04-14T17:28:26Z</time>
      </trkpt>
      <trkpt lat="43.040450" lon="-3.336817">
        <ele>1090.0</ele>
        <time>2013-04-14T17:28:36Z</time>
      </trkpt>
      <trkpt lat="43.040200" lon="-3.336400">
        <ele>1079.0</ele>
        <time>2013-04-14T17:28:46Z</time>
      </trkpt>
      <trkpt lat="43.039867" lon="-3.335950">
        <ele>1064.0</ele>
        <time>2013-04-14T17:28:56Z</time>
      </trkpt>
      <trkpt lat="43.039533" lon="-3.335383">
        <ele>1046.0</ele>
        <time>2013-04-14T17:29:06Z</time>
      </trkpt>
      <trkpt lat="43.039117" lon="-3.334900">
        <ele>1032.0</ele>
        <time>2013-04-14T17:29:16Z</time>
      </trkpt>
      <trkpt lat="43.038800" lon="-3.334350">
        <ele>1023.0</ele>
        <time>2013-04-14T17:29:26Z</time>
      </trkpt>
      <trkpt lat="43.038467" lon="-3.333833">
        <ele>1013.0</ele>
        <time>2013-04-14T17:29:36Z</time>
      </trkpt>
      <trkpt lat="43.038067" lon="-3.333383">
        <ele>1005.0</ele>
        <time>2013-04-14T17:29:46Z</time>
      </trkpt>
      <trkpt lat="43.037617" lon="-3.333167">
        <ele>999.0</ele>
        <time>2013-04-14T17:29:56Z</time>
      </trkpt>
      <trkpt lat="43.037200" lon="-3.332967">
        <ele>994.0</ele>
        <time>2013-04-14T17:30:06Z</time>
      </trkpt>
      <trkpt lat="43.036817" lon="-3.332567">
        <ele>987.0</ele>
        <time>2013-04-14T17:30:16Z</time>
      </trkpt>
      <trkpt lat="43.036417" lon="-3.332133">
        <ele>978.0</ele>
        <time>2013-04-14T17:30:26Z</time>
      </trkpt>
      <trkpt lat="43.035983" lon="-3.331833">
        <ele>970.0</ele>
        <time>2013-04-14T17:30:37Z</time>
      </trkpt>
      <trkpt lat="43.035617" lon="-3.331517">
        <ele>963.0</ele>
        <time>2013-04-14T17:30:47Z</time>
      </trkpt>
      <trkpt lat="43.035350" lon="-3.331150">
        <ele>957.0</ele>
        <time>2013-04-14T17:30:57Z</time>
      </trkpt>
      <trkpt lat="43.035117" lon="-3.330983">
        <ele>951.0</ele>
        <time>2013-04-14T17:31:07Z</time>
      </trkpt>
      <trkpt lat="43.034800" lon="-3.330917">
        <ele>945.0</ele>
        <time>2013-04-14T17:31:17Z</time>
      </trkpt>
      <trkpt lat="43.034550" lon="-3.330917">
        <ele>938.0</ele>
        <time>2013-04-14T17:31:27Z</time>
      </trkpt>
      <trkpt lat="43.034250" lon="-3.330817">
        <ele>930.0</ele>
        <time>2013-04-14T17:31:37Z</time>
      </trkpt>
      <trkpt lat="43.033850" lon="-3.330800">
        <ele>922.0</ele>
        <time>2013-04-14T17:31:47Z</time>
      </trkpt>
      <trkpt lat="43.033433" lon="-3.330850">
        <ele>913.0</ele>
        <time>2013-04-14T17:31:57Z</time>
      </trkpt>
      <trkpt lat="43.033083" lon="-3.330800">
        <ele>904.0</ele>
        <time>2013-04-14T17:32:07Z</time>
      </trkpt>
      <trkpt lat="43.032700" lon="-3.330833">
        <ele>894.0</ele>
        <time>2013-04-14T17:32:17Z</time>
      </trkpt>
      <trkpt lat="43.032333" lon="-3.330983">
        <ele>885.0</ele>
        <time>2013-04-14T17:32:27Z</time>
      </trkpt>
      <trkpt lat="43.031967" lon="-3.331017">
        <ele>875.0</ele>
        <time>2013-04-14T17:32:37Z</time>
      </trkpt>
      <trkpt lat="43.031600" lon="-3.331033">
        <ele>864.0</ele>
        <time>2013-04-14T17:32:47Z</time>
      </trkpt>
      <trkpt lat="43.031217" lon="-3.331033">
        <ele>855.0</ele>
        <time>2013-04-14T17:32:57Z</time>
      </trkpt>
      <trkpt lat="43.030817" lon="-3.331150">
        <ele>847.0</ele>
        <time>2013-04-14T17:33:07Z</time>
      </trkpt>
      <trkpt lat="43.030483" lon="-3.331283">
        <ele>840.0</ele>
        <time>2013-04-14T17:33:17Z</time>
      </trkpt>
      <trkpt lat="43.030583" lon="-3.331617">
        <ele>831.0</ele>
        <time>2013-04-14T17:33:27Z</time>
      </trkpt>
      <trkpt lat="43.031700" lon="-3.331600">
        <ele>818.0</ele>
        <time>2013-04-14T17:33:37Z</time>
      </trkpt>
      <trkpt lat="43.032800" lon="-3.331483">
        <ele>807.0</ele>
        <time>2013-04-14T17:33:47Z</time>
      </trkpt>
      <trkpt lat="43.033900" lon="-3.331633">
        <ele>796.0</ele>
        <time>2013-04-14T17:33:57Z</time>
      </trkpt>
      <trkpt lat="43.034800" lon="-3.331150">
        <ele>784.0</ele>
        <time>2013-04-14T17:34:07Z</time>
      </trkpt>
      <trkpt lat="43.034967" lon="-3.330017">
        <ele>775.0</ele>
        <time>2013-04-14T17:34:17Z</time>
      </trkpt>
      <trkpt lat="43.034733" lon="-3.329750">
        <ele>770.0</ele>
        <time>2013-04-14T17:34:27Z</time>
      </trkpt>
      <trkpt lat="43.034317" lon="-3.329867">
        <ele>768.0</ele>
        <time>2013-04-14T17:34:37Z</time>
      </trkpt>
      <trkpt lat="43.034317" lon="-3.329917">
        <ele>763.0</ele>
        <time>2013-04-14T17:34:47Z</time>
      </trkpt>
      <trkpt lat="43.034367" lon="-3.329917">
        <ele>757.0</ele>
        <time>2013-04-14T17:34:57Z</time>
      </trkpt>
      <trkpt lat="43.034367" lon="-3.329950">
        <ele>753.0</ele>
        <time>2013-04-14T17:35:07Z</time>
      </trkpt>
      <trkpt lat="43.034400" lon="-3.329967">
        <ele>747.0</ele>
        <time>2013-04-14T17:35:17Z</time>
      </trkpt>
      <trkpt lat="43.034417" lon="-3.329967">
        <ele>742.0</ele>
        <time>2013-04-14T17:35:27Z</time>
      </trkpt>
      <trkpt lat="43.034433" lon="-3.329967">
        <ele>737.0</ele>
        <time>2013-04-14T17:35:37Z</time>
      </trkpt>
      <trkpt lat="43.034433" lon="-3.329967">
        <ele>734.0</ele>
        <time>2013-04-14T17:35:47Z</time>
      </trkpt>
      <trkpt lat="43.034433" lon="-3.329967">
        <ele>733.0</ele>
        <time>2013-04-14T17:35:53Z</time>
      </trkpt>
    </trkseg>
  </trk>
</gpx>
